Time;durP1;ratioP1;P1;durP2;ratioP2;P2;SDS_P1;SDS_P2;PMS_P1;PMS_P2;Temp;Humidity;BMP_temperature;BMP_pressure;BME280_temperature;BME280_humidity;BME280_pressure;Samples;Min_cycle;Max_cycle;Signal;HPM_P1;HPM_P2
2022/02/22 00:01:48;;;;;;;32.25;5.40;;;5.30;99.90;;;;;;5067554;28;20039;-68
2022/02/22 00:04:13;;;;;;;31.35;5.55;;;5.40;99.90;;;;;;5100298;28;20041;-68
2022/02/22 00:06:39;;;;;;;34.33;5.53;;;5.40;99.90;;;;;;5074532;28;20032;-69
2022/02/22 00:09:05;;;;;;;44.13;6.13;;;5.30;99.90;;;;;;5070270;28;20032;-68
2022/02/22 00:11:30;;;;;;;36.22;6.05;;;5.40;99.90;;;;;;5070009;28;20131;-68
2022/02/22 00:13:56;;;;;;;38.80;6.70;;;5.30;99.90;;;;;;5071561;28;20036;-68
2022/02/22 00:16:21;;;;;;;35.83;6.15;;;5.30;99.90;;;;;;5067998;28;20051;-68
2022/02/22 00:18:47;;;;;;;36.15;5.93;;;5.30;99.90;;;;;;5067589;28;20559;-68
2022/02/22 00:21:13;;;;;;;35.30;5.82;;;5.30;99.90;;;;;;5066817;28;20068;-68
2022/02/22 00:23:39;;;;;;;41.63;6.10;;;5.30;99.90;;;;;;5070192;28;20124;-68
2022/02/22 00:26:05;;;;;;;37.60;6.70;;;5.30;99.90;;;;;;5070074;28;20040;-68
2022/02/22 00:28:31;;;;;;;31.55;7.22;;;5.20;99.90;;;;;;5069307;28;20044;-68
2022/02/22 00:30:57;;;;;;;29.63;5.75;;;5.20;99.90;;;;;;5071223;28;20066;-68
2022/02/22 00:33:22;;;;;;;36.22;5.95;;;5.20;99.90;;;;;;5097853;28;20032;-68
2022/02/22 00:35:48;;;;;;;31.13;5.18;;;5.20;99.90;;;;;;5068613;28;20040;-68
2022/02/22 00:38:14;;;;;;;38.92;6.85;;;5.20;99.90;;;;;;5071292;28;20037;-68
2022/02/22 00:40:39;;;;;;;36.83;7.35;;;5.20;99.90;;;;;;5066300;28;20045;-68
2022/02/22 00:43:06;;;;;;;35.55;6.07;;;5.20;99.90;;;;;;5068279;28;20040;-69
2022/02/22 00:45:32;;;;;;;39.28;6.20;;;5.10;99.90;;;;;;5067744;28;20052;-68
2022/02/22 00:47:58;;;;;;;26.67;4.53;;;5.10;99.90;;;;;;5068708;28;20153;-68
2022/02/22 00:50:24;;;;;;;25.98;5.00;;;5.10;99.90;;;;;;5071546;28;20045;-68
2022/02/22 00:52:49;;;;;;;26.83;4.22;;;5.10;99.90;;;;;;5067997;28;20040;-67
2022/02/22 00:55:15;;;;;;;24.58;4.35;;;5.10;99.90;;;;;;5071754;28;20043;-68
2022/02/22 00:57:43;;;;;;;19.63;4.20;;;5.20;99.90;;;;;;5066280;28;20159;-68
2022/02/22 01:00:09;;;;;;;28.95;4.07;;;5.10;99.90;;;;;;5068329;28;20098;-67
2022/02/22 01:02:35;;;;;;;26.73;3.92;;;5.20;99.90;;;;;;5069628;28;20068;-67
2022/02/22 01:05:00;;;;;;;20.60;3.20;;;5.10;99.90;;;;;;5070332;28;20074;-67
2022/02/22 01:07:26;;;;;;;30.80;4.43;;;5.20;99.90;;;;;;5066697;28;20024;-68
2022/02/22 01:09:52;;;;;;;27.98;4.70;;;5.20;99.90;;;;;;5068716;28;20097;-68
2022/02/22 01:12:18;;;;;;;24.00;4.35;;;5.10;99.90;;;;;;5067672;28;20066;-68
2022/02/22 01:14:44;;;;;;;24.98;3.47;;;5.10;99.90;;;;;;5064307;28;20048;-68
2022/02/22 01:17:10;;;;;;;24.35;4.15;;;5.10;99.90;;;;;;5065905;28;20361;-68
2022/02/22 01:19:36;;;;;;;28.05;4.82;;;5.10;99.90;;;;;;5067502;28;20035;-68
2022/02/22 01:22:02;;;;;;;31.17;5.45;;;5.10;99.90;;;;;;5051255;28;20403;-68
2022/02/22 01:24:28;;;;;;;28.10;5.03;;;5.10;99.90;;;;;;5085157;28;20125;-67
2022/02/22 01:26:53;;;;;;;37.03;5.00;;;5.10;99.90;;;;;;5066561;28;20067;-67
2022/02/22 01:29:19;;;;;;;35.88;8.02;;;5.10;99.90;;;;;;5068386;28;20075;-67
2022/02/22 01:31:45;;;;;;;28.08;4.07;;;5.10;99.90;;;;;;5064769;28;20039;-67
2022/02/22 01:34:11;;;;;;;31.85;5.00;;;5.10;99.90;;;;;;5066019;28;20178;-67
2022/02/22 01:36:37;;;;;;;23.63;4.25;;;4.90;99.90;;;;;;5068685;28;20028;-68
2022/02/22 01:39:03;;;;;;;28.80;5.25;;;4.90;99.90;;;;;;5064059;28;20501;-67
2022/02/22 01:41:29;;;;;;;33.00;4.47;;;4.90;99.90;;;;;;5066691;28;20048;-68
2022/02/22 01:43:55;;;;;;;28.73;4.40;;;5.00;99.90;;;;;;5065693;28;20093;-68
2022/02/22 01:46:21;;;;;;;35.50;5.65;;;4.90;99.90;;;;;;5063542;28;20391;-68
2022/02/22 01:48:47;;;;;;;25.80;5.13;;;4.90;99.90;;;;;;5068773;28;20048;-68
2022/02/22 01:51:13;;;;;;;30.90;4.32;;;4.90;99.90;;;;;;5066832;28;20449;-68
2022/02/22 01:53:38;;;;;;;31.77;5.05;;;5.00;99.90;;;;;;5068517;28;20036;-67
2022/02/22 01:56:07;;;;;;;30.55;4.32;;;4.90;99.90;;;;;;5067857;28;20525;-67
2022/02/22 01:58:33;;;;;;;30.98;5.38;;;5.10;99.90;;;;;;5065116;28;20071;-67
2022/02/22 02:00:59;;;;;;;30.58;4.68;;;4.90;99.90;;;;;;5065233;28;20045;-67
2022/02/22 02:03:26;;;;;;;26.38;4.32;;;4.80;99.90;;;;;;5066460;28;20106;-67
2022/02/22 02:05:52;;;;;;;28.55;5.32;;;4.80;99.90;;;;;;5066902;28;20043;-67
2022/02/22 02:08:18;;;;;;;32.70;5.55;;;4.90;99.90;;;;;;5071364;28;20078;-67
2022/02/22 02:10:43;;;;;;;24.85;5.13;;;4.90;99.90;;;;;;5068570;28;20043;-67
2022/02/22 02:13:09;;;;;;;22.10;5.00;;;4.80;99.90;;;;;;5061971;28;20029;-68
2022/02/22 02:15:34;;;;;;;24.58;4.90;;;4.70;99.90;;;;;;5066154;28;20032;-67
2022/02/22 02:18:00;;;;;;;29.70;4.47;;;4.80;99.90;;;;;;5069616;28;20036;-67
2022/02/22 02:20:26;;;;;;;30.38;4.75;;;4.70;99.90;;;;;;5065776;28;20495;-67
2022/02/22 02:22:51;;;;;;;32.00;4.03;;;4.70;99.90;;;;;;5063448;28;20086;-68
2022/02/22 02:25:17;;;;;;;30.27;4.68;;;4.70;99.90;;;;;;5067847;28;20036;-67
2022/02/22 02:27:43;;;;;;;31.90;5.75;;;4.60;99.90;;;;;;5063439;28;20047;-67
2022/02/22 02:30:10;;;;;;;31.23;6.00;;;4.60;99.90;;;;;;5067838;28;20036;-67
2022/02/22 02:32:36;;;;;;;31.92;4.82;;;4.60;99.90;;;;;;5069582;28;20037;-67
2022/02/22 02:35:04;;;;;;;25.30;5.20;;;4.50;99.90;;;;;;5072216;28;20048;-67
2022/02/22 02:37:29;;;;;;;34.70;5.40;;;4.50;99.90;;;;;;5072127;28;20859;-67
2022/02/22 02:39:55;;;;;;;35.00;5.80;;;4.50;99.90;;;;;;5071840;28;20056;-68
2022/02/22 02:42:20;;;;;;;27.73;4.75;;;4.50;99.90;;;;;;5068490;28;20116;-67
2022/02/22 02:44:48;;;;;;;29.58;5.07;;;4.40;99.90;;;;;;5068337;28;20040;-67
2022/02/22 02:47:15;;;;;;;42.25;6.82;;;4.40;99.90;;;;;;5070240;28;20033;-67
2022/02/22 02:49:42;;;;;;;32.00;5.03;;;4.40;99.90;;;;;;5070490;28;20040;-67
2022/02/22 02:52:08;;;;;;;27.48;5.22;;;4.40;99.90;;;;;;5070795;28;20043;-67
2022/02/22 02:54:34;;;;;;;30.70;5.35;;;4.40;99.90;;;;;;5067938;28;20119;-67
2022/02/22 02:57:01;;;;;;;32.97;6.20;;;4.40;99.90;;;;;;5069349;28;20036;-67
2022/02/22 02:59:26;;;;;;;23.92;4.38;;;4.40;99.90;;;;;;5097933;28;20041;-67
2022/02/22 03:01:52;;;;;;;35.83;4.45;;;4.40;99.90;;;;;;5071327;28;20047;-67
2022/02/22 03:04:18;;;;;;;31.30;4.80;;;4.40;99.90;;;;;;5065297;28;20034;-68
2022/02/22 03:06:43;;;;;;;36.85;4.22;;;4.40;99.90;;;;;;5073448;28;20039;-67
2022/02/22 03:09:09;;;;;;;25.08;3.30;;;4.30;99.90;;;;;;5069860;28;20442;-67
2022/02/22 03:11:35;;;;;;;25.60;4.25;;;4.40;99.90;;;;;;5098895;28;20040;-67
2022/02/22 03:14:01;;;;;;;23.42;4.55;;;4.30;99.90;;;;;;5069209;28;20834;-67
2022/02/22 03:16:27;;;;;;;25.92;4.70;;;4.30;99.90;;;;;;5067925;28;20495;-67
2022/02/22 03:18:52;;;;;;;22.73;3.88;;;4.30;99.90;;;;;;5069606;28;20040;-67
2022/02/22 03:21:18;;;;;;;26.45;4.72;;;4.30;99.90;;;;;;5069129;28;20102;-67
2022/02/22 03:23:44;;;;;;;29.80;3.92;;;4.30;99.90;;;;;;5067639;28;20041;-67
2022/02/22 03:26:10;;;;;;;22.42;3.47;;;4.30;99.90;;;;;;5067740;28;20045;-67
2022/02/22 03:28:36;;;;;;;32.60;5.30;;;4.30;99.90;;;;;;5071652;28;20499;-68
2022/02/22 03:31:03;;;;;;;29.70;3.50;;;4.30;99.90;;;;;;5069735;28;20048;-67
2022/02/22 03:33:29;;;;;;;27.00;4.10;;;4.20;99.90;;;;;;5071858;28;20055;-67
2022/02/22 03:35:55;;;;;;;23.13;3.35;;;4.20;99.90;;;;;;5068706;28;20050;-67
2022/02/22 03:38:20;;;;;;;23.20;3.90;;;4.20;99.90;;;;;;5070228;28;20040;-68
2022/02/22 03:40:47;;;;;;;24.30;3.70;;;4.20;99.90;;;;;;5067696;28;20047;-68
2022/02/22 03:43:12;;;;;;;23.92;4.13;;;4.20;99.90;;;;;;5068344;28;20368;-68
2022/02/22 03:45:38;;;;;;;32.03;4.43;;;4.20;99.90;;;;;;5070304;28;20052;-67
2022/02/22 03:48:04;;;;;;;21.60;3.20;;;4.10;99.90;;;;;;5071240;28;20036;-67
2022/02/22 03:50:30;;;;;;;23.67;3.25;;;4.20;99.90;;;;;;5068205;28;20123;-67
2022/02/22 03:52:55;;;;;;;25.35;3.63;;;4.10;99.90;;;;;;5071290;28;20069;-67
2022/02/22 03:55:22;;;;;;;25.27;3.47;;;4.20;99.90;;;;;;5067668;28;20048;-67
2022/02/22 03:57:48;;;;;;;27.55;4.97;;;4.20;99.90;;;;;;5069668;28;20083;-67
2022/02/22 04:00:18;;;;;;;25.30;3.47;;;4.20;99.90;;;;;;5066721;28;20203;-67
2022/02/22 04:02:45;;;;;;;30.30;3.97;;;4.20;99.90;;;;;;5069288;28;20068;-67
2022/02/22 04:05:11;;;;;;;18.55;2.55;;;4.20;99.90;;;;;;5069725;28;20036;-67
2022/02/22 04:07:37;;;;;;;27.83;3.53;;;4.20;99.90;;;;;;5066178;28;20049;-67
2022/02/22 04:10:05;;;;;;;29.40;3.83;;;4.10;99.90;;;;;;5054889;28;20086;-67
2022/02/22 04:12:31;;;;;;;26.88;4.25;;;4.20;99.90;;;;;;5069600;28;20137;-67
2022/02/22 04:14:57;;;;;;;30.13;3.25;;;4.20;99.90;;;;;;5068930;28;20087;-67
2022/02/22 04:17:22;;;;;;;22.15;2.97;;;4.10;99.90;;;;;;5074252;28;20044;-67
2022/02/22 04:19:49;;;;;;;26.80;3.63;;;4.20;99.90;;;;;;5068324;28;20036;-67
2022/02/22 04:22:16;;;;;;;28.30;3.78;;;4.20;99.90;;;;;;5067795;28;20501;-67
2022/02/22 04:24:41;;;;;;;29.98;4.28;;;4.10;99.90;;;;;;5072129;28;20048;-67
2022/02/22 04:27:07;;;;;;;32.50;4.55;;;4.20;99.90;;;;;;5068342;28;20371;-67
2022/02/22 04:29:33;;;;;;;29.05;3.72;;;5.00;99.90;;;;;;5069574;28;20093;-67
2022/02/22 04:32:01;;;;;;;21.92;3.05;;;4.20;99.90;;;;;;5089062;28;20560;-67
2022/02/22 04:34:26;;;;;;;33.83;4.97;;;4.20;99.90;;;;;;5073851;28;20046;-67
2022/02/22 04:36:52;;;;;;;33.03;4.47;;;4.20;99.90;;;;;;5066924;28;20508;-67
2022/02/22 04:39:18;;;;;;;32.78;4.80;;;4.20;99.90;;;;;;5072362;28;20050;-67
2022/02/22 04:41:43;;;;;;;32.70;4.68;;;4.20;99.90;;;;;;5068890;28;20047;-67
2022/02/22 04:44:09;;;;;;;34.05;5.00;;;4.20;99.90;;;;;;5069162;28;20040;-68
2022/02/22 04:46:34;;;;;;;31.60;5.60;;;4.20;99.90;;;;;;5068881;28;20051;-68
2022/02/22 04:49:00;;;;;;;29.90;4.80;;;4.30;99.90;;;;;;5069390;28;20068;-68
2022/02/22 04:51:26;;;;;;;26.77;3.67;;;4.20;99.90;;;;;;5068434;28;20043;-68
2022/02/22 04:53:52;;;;;;;27.65;3.83;;;4.20;99.90;;;;;;5048843;28;20044;-68
2022/02/22 04:56:17;;;;;;;24.00;4.05;;;4.20;99.90;;;;;;5066469;28;20044;-68
2022/02/22 04:58:46;;;;;;;25.77;3.67;;;4.10;99.90;;;;;;5068360;28;20055;-68
2022/02/22 05:01:12;;;;;;;23.42;3.75;;;4.20;99.90;;;;;;5070856;28;20040;-68
2022/02/22 05:03:38;;;;;;;27.33;4.53;;;4.20;99.90;;;;;;5068104;28;20033;-68
2022/02/22 05:06:03;;;;;;;21.95;3.55;;;4.20;99.90;;;;;;5066457;28;20059;-68
2022/02/22 05:08:29;;;;;;;34.13;4.80;;;4.20;99.90;;;;;;5069060;28;20043;-68
2022/02/22 05:10:58;;;;;;;27.70;3.75;;;4.20;99.90;;;;;;5067207;28;20427;-68
2022/02/22 05:13:23;;;;;;;20.50;3.47;;;4.10;99.90;;;;;;5049642;28;20048;-68
2022/02/22 05:15:49;;;;;;;29.17;4.63;;;4.10;99.90;;;;;;5069492;28;20044;-68
2022/02/22 05:18:15;;;;;;;28.92;3.50;;;4.00;99.90;;;;;;5070352;28;20029;-68
2022/02/22 05:20:54;;;;;;;23.05;3.78;;;4.20;99.90;;;;;;5069978;28;20574;-68
2022/02/22 05:23:21;;;;;;;28.27;3.85;;;4.10;99.90;;;;;;5069902;28;20044;-68
2022/02/22 05:25:46;;;;;;;25.08;3.92;;;4.10;99.90;;;;;;5067559;28;20423;-68
2022/02/22 05:28:12;;;;;;;31.38;5.00;;;4.10;99.90;;;;;;5064151;28;20045;-68
2022/02/22 05:30:38;;;;;;;26.67;3.88;;;4.00;99.90;;;;;;5068767;28;20037;-68
2022/02/22 05:33:04;;;;;;;24.10;4.22;;;4.00;99.90;;;;;;5068758;28;20059;-68
2022/02/22 05:35:29;;;;;;;32.08;4.72;;;4.00;99.90;;;;;;5071932;28;20130;-68
2022/02/22 05:37:55;;;;;;;24.85;3.40;;;4.00;99.90;;;;;;5064048;28;20092;-67
2022/02/22 05:40:21;;;;;;;23.27;3.60;;;4.00;99.90;;;;;;5066823;28;20517;-67
2022/02/22 05:42:46;;;;;;;27.73;3.83;;;3.90;99.90;;;;;;5066997;28;20402;-67
2022/02/22 05:45:15;;;;;;;33.38;4.20;;;3.90;99.90;;;;;;5065135;28;20162;-67
2022/02/22 05:47:41;;;;;;;26.17;5.15;;;3.90;99.90;;;;;;5066982;28;20040;-67
2022/02/22 05:50:06;;;;;;;33.88;5.07;;;3.90;99.90;;;;;;5068145;28;20395;-67
2022/02/22 05:52:32;;;;;;;25.00;5.88;;;3.90;99.90;;;;;;5068162;28;20719;-67
2022/02/22 05:54:58;;;;;;;30.63;5.65;;;3.90;99.90;;;;;;5069441;28;20067;-68
2022/02/22 05:57:24;;;;;;;26.98;3.58;;;3.80;99.90;;;;;;5065102;28;20040;-67
2022/02/22 05:59:50;;;;;;;29.77;4.22;;;3.80;99.90;;;;;;5065439;28;20487;-68
2022/02/22 06:02:16;;;;;;;34.95;4.47;;;3.80;99.90;;;;;;5063152;28;20047;-66
2022/02/22 06:04:41;;;;;;;21.55;4.18;;;3.80;99.90;;;;;;5061206;28;20049;-67
2022/02/22 06:07:07;;;;;;;35.50;4.85;;;3.80;99.90;;;;;;5067689;28;20033;-68
2022/02/22 06:09:32;;;;;;;28.63;4.32;;;3.80;99.90;;;;;;5070084;28;20043;-67
2022/02/22 06:11:58;;;;;;;36.50;4.07;;;3.80;99.90;;;;;;5070571;28;20494;-66
2022/02/22 06:14:23;;;;;;;31.00;4.15;;;3.80;99.90;;;;;;5069167;28;20040;-67
2022/02/22 06:16:53;;;;;;;31.15;3.88;;;3.80;99.90;;;;;;5073142;28;20043;-67
2022/02/22 06:19:19;;;;;;;25.27;4.20;;;3.70;99.90;;;;;;5071451;28;20475;-67
2022/02/22 06:21:45;;;;;;;26.83;3.72;;;3.80;99.90;;;;;;5069758;28;20052;-67
2022/02/22 06:24:10;;;;;;;26.02;4.60;;;3.80;99.90;;;;;;5066857;28;20064;-67
2022/02/22 06:26:36;;;;;;;29.20;3.92;;;3.80;99.90;;;;;;5070222;28;20075;-68
2022/02/22 06:29:01;;;;;;;35.90;3.85;;;3.80;99.90;;;;;;5070934;28;20044;-67
2022/02/22 06:31:27;;;;;;;39.45;5.68;;;3.80;99.90;;;;;;5066832;28;20138;-67
2022/02/22 06:33:52;;;;;;;21.52;3.35;;;3.70;99.90;;;;;;5067785;28;20036;-68
2022/02/22 06:36:18;;;;;;;29.70;4.95;;;3.70;99.90;;;;;;5070070;28;20719;-68
2022/02/22 06:38:43;;;;;;;25.95;5.50;;;3.70;99.90;;;;;;5069599;28;20036;-68
2022/02/22 06:41:09;;;;;;;34.72;4.55;;;3.70;99.90;;;;;;5065567;28;20039;-68
2022/02/22 06:43:35;;;;;;;31.88;3.72;;;3.70;99.90;;;;;;5073680;28;20090;-68
2022/02/22 06:46:01;;;;;;;32.97;5.35;;;4.00;99.90;;;;;;5077256;28;20115;-68
2022/02/22 06:48:26;;;;;;;37.50;4.70;;;3.70;99.90;;;;;;5072342;28;20049;-68
2022/02/22 06:50:52;;;;;;;25.75;3.70;;;3.70;99.90;;;;;;5072685;28;20499;-68
2022/02/22 06:53:18;;;;;;;35.65;4.45;;;3.70;99.90;;;;;;5070621;28;20036;-68
2022/02/22 06:55:43;;;;;;;34.13;4.40;;;3.70;99.90;;;;;;5066788;28;20037;-68
2022/02/22 06:58:10;;;;;;;38.72;5.40;;;3.70;99.90;;;;;;5068838;28;20129;-68
2022/02/22 07:00:38;;;;;;;36.53;4.85;;;3.70;99.90;;;;;;5065306;28;20047;-68
2022/02/22 07:03:04;;;;;;;34.80;4.65;;;3.80;99.90;;;;;;5069047;28;20056;-68
2022/02/22 07:05:34;;;;;;;44.67;5.82;;;3.80;99.90;;;;;;5098582;28;20068;-68
2022/02/22 07:08:00;;;;;;;34.60;5.32;;;3.80;99.90;;;;;;5073489;28;20029;-68
2022/02/22 07:10:27;;;;;;;27.65;4.25;;;3.80;99.90;;;;;;5067297;28;20131;-68
2022/02/22 07:12:53;;;;;;;38.72;3.90;;;3.80;99.90;;;;;;5063502;28;20044;-68
2022/02/22 07:15:19;;;;;;;32.70;4.88;;;3.80;99.90;;;;;;5066891;28;20573;-68
2022/02/22 07:17:50;;;;;;;35.95;6.10;;;3.80;99.90;;;;;;5069874;28;20036;-68
2022/02/22 07:20:17;;;;;;;30.73;4.47;;;3.80;99.90;;;;;;5071869;28;20074;-68
2022/02/22 07:22:44;;;;;;;30.73;4.25;;;3.90;99.90;;;;;;5067661;28;20111;-68
2022/02/22 07:25:12;;;;;;;31.75;4.68;;;3.80;99.90;;;;;;5069252;28;20048;-68
2022/02/22 07:27:39;;;;;;;32.05;4.07;;;3.90;99.90;;;;;;5068367;28;20048;-68
2022/02/22 07:30:06;;;;;;;31.63;4.38;;;4.00;99.90;;;;;;5070888;28;20044;-68
2022/02/22 07:32:32;;;;;;;36.70;5.10;;;4.10;99.90;;;;;;5069768;28;20071;-68
2022/02/22 07:34:58;;;;;;;24.25;4.05;;;4.10;99.90;;;;;;5066474;28;20526;-68
2022/02/22 07:37:23;;;;;;;26.10;3.90;;;4.20;99.90;;;;;;5067313;28;20033;-68
2022/02/22 07:39:49;;;;;;;29.02;4.25;;;4.30;99.90;;;;;;5067458;28;20479;-68
2022/02/22 07:42:15;;;;;;;30.35;4.07;;;4.40;99.90;;;;;;5083718;28;20048;-68
2022/02/22 07:44:41;;;;;;;33.25;4.32;;;4.40;99.90;;;;;;5066295;28;20407;-68
2022/02/22 07:47:07;;;;;;;31.10;4.65;;;4.40;99.90;;;;;;5099203;28;20392;-68
2022/02/22 07:49:32;;;;;;;30.88;4.68;;;4.40;99.90;;;;;;5062598;28;20487;-68
2022/02/22 07:51:58;;;;;;;25.90;4.70;;;4.40;99.90;;;;;;5068557;28;20045;-68
2022/02/22 07:54:24;;;;;;;35.53;4.65;;;4.40;99.90;;;;;;5068542;28;20044;-68
2022/02/22 07:56:50;;;;;;;36.90;4.53;;;4.50;99.90;;;;;;5078725;28;20042;-68
2022/02/22 07:59:16;;;;;;;32.72;7.78;;;4.60;99.90;;;;;;5066828;28;20037;-68
2022/02/22 08:01:41;;;;;;;27.55;4.35;;;4.60;99.90;;;;;;5065227;28;20029;-68
2022/02/22 08:04:07;;;;;;;34.53;4.80;;;4.70;99.90;;;;;;5065721;28;20028;-68
2022/02/22 08:06:33;;;;;;;30.55;4.03;;;4.60;99.90;;;;;;5068102;28;20045;-68
2022/02/22 08:08:59;;;;;;;33.58;4.28;;;4.70;99.90;;;;;;5045825;28;20036;-68
2022/02/22 08:11:29;;;;;;;35.67;4.43;;;4.80;99.90;;;;;;5067205;28;20411;-68
2022/02/22 08:14:07;;;;;;;28.48;4.75;;;4.80;99.90;;;;;;5079634;28;20088;-68
2022/02/22 08:16:33;;;;;;;30.35;5.30;;;4.90;99.90;;;;;;5063952;28;20076;-68
2022/02/22 08:18:59;;;;;;;30.10;4.85;;;5.00;99.90;;;;;;5067940;28;20033;-68
2022/02/22 08:21:25;;;;;;;28.55;4.82;;;5.00;99.90;;;;;;5066116;28;20041;-68
2022/02/22 08:23:50;;;;;;;28.48;5.05;;;5.10;99.90;;;;;;5065986;28;20593;-68
2022/02/22 08:26:18;;;;;;;38.10;4.60;;;5.20;99.90;;;;;;5065482;28;20036;-68
2022/02/22 08:28:44;;;;;;;36.65;5.22;;;5.30;99.90;;;;;;5067105;28;20089;-68
2022/02/22 08:31:10;;;;;;;20.83;4.20;;;5.40;99.90;;;;;;5063623;28;20127;-68
2022/02/22 08:33:36;;;;;;;31.05;4.25;;;5.60;99.90;;;;;;5064523;28;20053;-68
2022/02/22 08:36:02;;;;;;;24.02;3.47;;;5.60;99.90;;;;;;5067736;28;20041;-68
2022/02/22 08:38:27;;;;;;;31.00;4.55;;;5.60;99.90;;;;;;5065781;28;20075;-68
2022/02/22 08:40:53;;;;;;;25.75;5.18;;;5.70;99.90;;;;;;5065710;28;20495;-68
2022/02/22 08:43:19;;;;;;;34.78;4.35;;;5.80;99.90;;;;;;5064035;28;20535;-68
2022/02/22 08:45:45;;;;;;;24.73;3.92;;;5.90;99.90;;;;;;5067934;28;20044;-68
2022/02/22 08:48:13;;;;;;;28.00;4.43;;;6.00;99.90;;;;;;5064545;28;20032;-69
2022/02/22 08:50:39;;;;;;;32.03;4.90;;;6.10;99.90;;;;;;5066604;28;20497;-68
2022/02/22 08:53:05;;;;;;;23.13;3.85;;;6.20;99.90;;;;;;5064276;28;20048;-69
2022/02/22 08:55:31;;;;;;;27.17;3.60;;;6.20;99.90;;;;;;5065213;28;20087;-69
2022/02/22 08:57:58;;;;;;;23.80;3.30;;;6.30;99.90;;;;;;5065550;28;20083;-69
2022/02/22 09:00:25;;;;;;;25.05;4.35;;;6.30;99.90;;;;;;5064033;28;20045;-68
2022/02/22 09:02:53;;;;;;;26.85;3.75;;;6.30;99.90;;;;;;5066957;28;20055;-68
2022/02/22 09:05:19;;;;;;;32.95;3.55;;;6.40;99.90;;;;;;5063527;28;20123;-69
2022/02/22 09:07:45;;;;;;;18.85;3.80;;;6.40;99.90;;;;;;5065965;28;20036;-68
2022/02/22 09:10:13;;;;;;;23.88;3.83;;;6.40;99.90;;;;;;5064810;28;20125;-67
2022/02/22 09:12:40;;;;;;;27.70;4.00;;;6.40;99.90;;;;;;5064472;28;20052;-68
2022/02/22 09:15:08;;;;;;;22.90;4.53;;;6.50;99.90;;;;;;5063333;28;20040;-68
2022/02/22 09:17:33;;;;;;;25.33;3.90;;;6.50;99.90;;;;;;5063151;28;20471;-68
2022/02/22 09:20:02;;;;;;;24.85;3.65;;;6.50;99.90;;;;;;5064785;28;20043;-67
2022/02/22 09:22:28;;;;;;;21.58;3.75;;;6.50;99.90;;;;;;5065457;28;20186;-67
2022/02/22 09:24:53;;;;;;;23.48;4.20;;;6.60;99.90;;;;;;5063511;28;20456;-66
2022/02/22 09:27:19;;;;;;;22.38;4.45;;;6.60;99.90;;;;;;5063322;28;20105;-67
2022/02/22 09:29:45;;;;;;;21.40;4.32;;;6.60;99.90;;;;;;5065438;28;20036;-67
2022/02/22 09:32:11;;;;;;;22.52;5.25;;;6.60;99.90;;;;;;5068424;28;20111;-67
2022/02/22 09:34:37;;;;;;;22.80;5.00;;;6.60;99.90;;;;;;5065248;28;20036;-66
2022/02/22 09:37:05;;;;;;;25.77;5.47;;;6.50;99.90;;;;;;5066274;28;20616;-67
2022/02/22 09:39:31;;;;;;;22.45;5.65;;;6.60;99.90;;;;;;5067342;28;20785;-67
2022/02/22 09:41:57;;;;;;;25.83;6.53;;;6.60;99.90;;;;;;5068413;28;20135;-67
2022/02/22 09:44:23;;;;;;;34.30;6.05;;;6.60;99.90;;;;;;5070378;28;20039;-67
2022/02/22 09:46:50;;;;;;;36.45;6.15;;;6.70;99.90;;;;;;5070062;28;20131;-66
2022/02/22 09:49:16;;;;;;;30.80;6.25;;;6.70;99.90;;;;;;5070443;28;20491;-67
2022/02/22 09:51:42;;;;;;;37.92;7.68;;;6.70;99.90;;;;;;5070683;28;20517;-67
2022/02/22 09:54:08;;;;;;;31.60;6.85;;;6.70;99.90;;;;;;5069809;28;20083;-66
2022/02/22 09:56:42;;;;;;;26.85;5.63;;;6.70;99.90;;;;;;5070524;28;20033;-67
2022/02/22 09:59:07;;;;;;;24.92;5.97;;;6.80;99.90;;;;;;5070333;28;20036;-67
2022/02/22 10:01:45;;;;;;;28.25;6.18;;;6.80;99.90;;;;;;5069788;28;20047;-67
2022/02/22 10:04:11;;;;;;;33.85;6.03;;;6.90;99.90;;;;;;5082288;28;20040;-67
2022/02/22 10:06:37;;;;;;;31.30;5.38;;;6.90;99.90;;;;;;5071351;28;20428;-67
2022/02/22 10:09:05;;;;;;;25.42;6.22;;;6.90;99.90;;;;;;5066269;28;20055;-66
2022/02/22 10:11:50;;;;;;;37.47;7.63;;;6.80;99.90;;;;;;5067131;28;20097;-67
2022/02/22 10:14:25;;;;;;;28.40;5.68;;;7.00;99.90;;;;;;5072583;28;20454;-67
2022/02/22 10:16:53;;;;;;;26.43;4.93;;;7.00;99.90;;;;;;5069726;28;20048;-67
2022/02/22 10:19:20;;;;;;;34.15;6.18;;;7.00;99.90;;;;;;5052843;28;20032;-67
2022/02/22 10:21:48;;;;;;;30.30;5.75;;;7.10;99.90;;;;;;5070427;28;20472;-67
2022/02/22 10:24:17;;;;;;;29.67;6.13;;;7.10;99.90;;;;;;5067884;28;20105;-67
2022/02/22 10:26:43;;;;;;;30.92;6.15;;;7.20;99.90;;;;;;5066125;28;20037;-67
2022/02/22 10:29:20;;;;;;;27.67;5.90;;;7.20;99.90;;;;;;5069955;28;20032;-67
2022/02/22 10:31:47;;;;;;;30.30;5.82;;;7.20;99.90;;;;;;5068808;28;20080;-67
2022/02/22 10:34:14;;;;;;;26.35;5.97;;;7.30;99.90;;;;;;5101701;28;20036;-66
2022/02/22 10:36:42;;;;;;;38.42;5.68;;;7.30;99.90;;;;;;5069483;28;20044;-66
2022/02/22 10:39:11;;;;;;;31.70;4.97;;;7.40;99.90;;;;;;5068661;28;20039;-67
2022/02/22 10:41:42;;;;;;;26.70;6.03;;;7.40;99.90;;;;;;5068260;28;20637;-67
2022/02/22 10:44:11;;;;;;;28.23;6.38;;;7.40;99.90;;;;;;5068816;28;20484;-67
2022/02/22 10:46:40;;;;;;;29.08;6.15;;;7.40;99.90;;;;;;5102059;28;20037;-66
2022/02/22 10:49:09;;;;;;;27.55;5.30;;;7.40;99.90;;;;;;5065194;28;20040;-67
2022/02/22 10:51:39;;;;;;;29.08;5.55;;;7.40;99.90;;;;;;5069144;28;20055;-66
2022/02/22 10:54:05;;;;;;;28.23;5.63;;;7.40;99.90;;;;;;5069756;28;20400;-67
2022/02/22 10:56:32;;;;;;;28.75;5.00;;;7.40;99.90;;;;;;5070418;28;20123;-67
2022/02/22 10:58:58;;;;;;;23.00;5.13;;;7.40;99.90;;;;;;5065836;28;20480;-67
2022/02/22 11:01:24;;;;;;;30.45;6.88;;;7.50;99.90;;;;;;5068263;28;20052;-67
2022/02/22 11:03:51;;;;;;;26.27;6.60;;;7.50;99.90;;;;;;5075838;28;20495;-67
2022/02/22 11:06:19;;;;;;;24.58;5.20;;;7.50;99.90;;;;;;5069538;28;20036;-66
2022/02/22 11:08:48;;;;;;;22.10;4.75;;;7.60;99.90;;;;;;5069855;28;20406;-67
2022/02/22 11:11:39;;;;;;;21.95;4.35;;;7.60;99.90;;;;;;5070185;28;20071;-67
2022/02/22 11:14:07;;;;;;;27.77;4.85;;;7.70;99.90;;;;;;5062255;28;20543;-67
2022/02/22 11:16:41;;;;;;;25.80;4.93;;;7.70;99.90;;;;;;5074149;28;20045;-67
2022/02/22 11:19:19;;;;;;;23.65;4.28;;;7.70;99.90;;;;;;5067576;28;20396;-67
2022/02/22 11:21:50;;;;;;;25.67;4.53;;;7.70;99.90;;;;;;5067703;28;20048;-67
2022/02/22 11:24:18;;;;;;;31.17;4.55;;;7.70;99.90;;;;;;5068316;28;20058;-67
2022/02/22 11:27:00;;;;;;;36.88;8.00;;;7.70;99.90;;;;;;5066057;28;20025;-67
2022/02/22 11:29:29;;;;;;;26.38;4.53;;;7.70;99.90;;;;;;5066381;28;20043;-67
2022/02/22 11:32:04;;;;;;;24.75;4.25;;;7.70;99.90;;;;;;5068600;28;20032;-67
2022/02/22 11:34:36;;;;;;;23.88;4.28;;;7.70;99.90;;;;;;5065697;28;20486;-67
2022/02/22 11:37:08;;;;;;;25.52;3.83;;;7.70;99.90;;;;;;5064336;28;20044;-67
2022/02/22 11:39:55;;;;;;;27.48;4.60;;;7.70;99.90;;;;;;5060799;28;20120;-67
2022/02/22 11:42:31;;;;;;;29.98;4.95;;;7.70;99.90;;;;;;5100060;28;20380;-67
2022/02/22 11:45:11;;;;;;;26.75;5.13;;;7.70;99.90;;;;;;5096869;28;20069;-67
2022/02/22 11:47:39;;;;;;;28.63;6.25;;;7.70;99.90;;;;;;5065113;28;20044;-66
2022/02/22 11:50:17;;;;;;;29.25;5.88;;;7.70;99.90;;;;;;5064315;28;20040;-67
2022/02/22 11:52:53;;;;;;;24.30;5.78;;;7.60;99.90;;;;;;5063614;28;20483;-67
2022/02/22 11:55:19;;;;;;;29.38;4.30;;;7.70;99.90;;;;;;5066949;28;20433;-67
2022/02/22 11:57:49;;;;;;;24.52;4.93;;;7.70;99.90;;;;;;5067230;28;20043;-67
2022/02/22 12:00:17;;;;;;;30.85;6.10;;;7.70;99.90;;;;;;5059205;28;20037;-67
2022/02/22 12:02:44;;;;;;;25.13;6.35;;;7.70;99.90;;;;;;5095121;27;20045;-67
2022/02/22 12:05:49;;;;;;;32.58;5.95;;;7.50;99.90;;;;;;5063839;28;20051;-67
2022/02/22 12:08:27;;;;;;;32.38;6.68;;;7.50;99.90;;;;;;5065356;28;20044;-66
2022/02/22 12:10:55;;;;;;;32.45;4.95;;;7.50;99.90;;;;;;5066016;28;20037;-67
2022/02/22 12:13:42;;;;;;;35.75;6.43;;;7.40;99.90;;;;;;5063106;28;20044;-67
2022/02/22 12:16:18;;;;;;;35.80;7.05;;;7.40;99.90;;;;;;5067554;28;20036;-67
2022/02/22 12:18:44;;;;;;;;;;;7.30;99.90;;;;;;5066001;28;20033;-67
2022/02/22 12:21:10;;;;;;;;;;;7.30;99.90;;;;;;5067589;28;20395;-67
2022/02/22 12:23:39;;;;;;;37.03;7.00;;;7.30;99.90;;;;;;5063348;28;20015;-67
2022/02/22 12:26:10;;;;;;;26.30;5.82;;;7.30;99.90;;;;;;5065017;28;20514;-67
2022/02/22 12:28:43;;;;;;;39.17;6.93;;;7.30;99.90;;;;;;5063817;28;20125;-67
2022/02/22 12:31:09;;;;;;;28.83;6.32;;;7.40;99.90;;;;;;5063696;28;20044;-67
2022/02/22 12:33:35;;;;;;;33.30;7.70;;;7.40;99.90;;;;;;5094038;28;20132;-67
2022/02/22 12:36:13;;;;;;;39.15;8.38;;;7.40;99.90;;;;;;5066985;28;20181;-67
2022/02/22 12:38:38;;;;;;;32.33;7.53;;;7.40;99.90;;;;;;5066445;28;20036;-67
2022/02/22 12:41:16;;;;;;;29.10;8.52;;;7.40;99.90;;;;;;5068097;28;20040;-67
2022/02/22 12:43:47;;;;;;;30.02;7.90;;;7.50;99.90;;;;;;5062518;28;20048;-67
2022/02/22 12:46:14;;;;;;;24.80;7.20;;;7.50;99.90;;;;;;5062482;28;20042;-67
2022/02/22 12:48:43;;;;;;;26.00;7.93;;;7.50;99.90;;;;;;5065982;28;20557;-67